Rickmers Seoul — V7EI5 — position and weather

sailwx.info

Track history (hours):
 
Tides and Currents Weather Stations Pressure Air Temp Water Temp Dewpoint Dewpoint Depression Visibility Wind Speed Wind Dir Waves Ship Positions

Rickmers Seoul

Last reported at 2015-Jan-23 03:16 UTC. Time now 2015-Jan-25 14:17 UTC.
Position N 30°46' E 032°20'.

Length 192.9 m; beam 27.8 m; draft 11.2 m.

Type: Ship. MMSI: 538001809.

Date/timePositionNaut miles runAvg speedWind from/ knotsBaromVisibWave heightAir tempDewpointWater temp
2015-Jan-23 03:16N 30°46' E 032°20'6 9.1
2015-Jan-23 02:33N 30°52' E 032°19'9 9.1
2015-Jan-23 01:33N 31°01' E 032°19'9 8.9
2015-Jan-23 00:33N 31°10' E 032°18'10 8.1
2015-Jan-22 23:18N 31°19' E 032°22'3 1.4
2015-Jan-22 21:31N 31°22' E 032°20'0 0.0
2015-Jan-22 20:31N 31°21' E 032°20'0 0.0
2015-Jan-22 15:30N 31°21' E 032°20'5 5.5
2015-Jan-22 14:33N 31°27' E 032°19'1110.5
2015-Jan-22 13:32N 31°34' E 032°10'  
2015-Jan-17 15:25N 43°09' E 009°34'9 9.7
2015-Jan-17 14:31N 43°17' E 009°29'9 9.5
2015-Jan-17 13:33N 43°26' E 009°25'10 9.5
2015-Jan-17 12:33N 43°35' E 009°21'9 9.2
2015-Jan-17 11:33N 43°43' E 009°16'9 9.2
2015-Jan-17 10:33N 43°52' E 009°12'9 9.2
2015-Jan-17 09:33N 44°00' E 009°08'9 9.3
2015-Jan-17 08:34N 44°09' E 009°04'10 9.6
2015-Jan-17 07:33N 44°18' E 008°59'7 7.3
2015-Jan-17 06:33N 44°24' E 008°53'0 0.0
2015-Jan-17 05:28N 44°24' E 008°53'0 0.0
2015-Jan-17 04:31N 44°24' E 008°53'0 0.0
2015-Jan-17 03:31N 44°24' E 008°53'0 0.0
2015-Jan-17 02:31N 44°24' E 008°53'0 0.0
2015-Jan-17 01:31N 44°24' E 008°53'0 0.0
2015-Jan-17 00:31N 44°24' E 008°53'0 0.0
2015-Jan-16 23:31N 44°24' E 008°53'0 0.0
2015-Jan-16 22:31N 44°24' E 008°53'0 0.0
2015-Jan-16 21:31N 44°24' E 008°53'0 0.0
2015-Jan-16 20:31N 44°24' E 008°53'0 0.0
2015-Jan-16 19:31N 44°24' E 008°53'0 0.0
2015-Jan-16 18:31N 44°24' E 008°53'0 0.0
2015-Jan-16 17:28N 44°24' E 008°53'0 0.0
2015-Jan-16 16:31N 44°24' E 008°53'0 0.0
2015-Jan-16 15:31N 44°24' E 008°53'0 0.0
2015-Jan-16 14:31N 44°24' E 008°53'0 0.0
2015-Jan-16 13:31N 44°24' E 008°53'0 0.0
2015-Jan-16 12:28N 44°24' E 008°53'0 0.0
2015-Jan-16 11:31N 44°24' E 008°53'0 0.0
2015-Jan-16 10:31N 44°24' E 008°53'1 1.4
2015-Jan-16 09:33N 44°24' E 008°55'7 7.1
2015-Jan-16 08:33N 44°17' E 008°54'1211.8
2015-Jan-16 07:33N 44°09' E 008°42'1111.2
2015-Jan-16 06:33N 44°01' E 008°30'5011.6
2015-Jan-16 02:15N 43°28' E 007°39'811.9
2015-Jan-16 01:33N 43°22' E 007°31'1211.7
2015-Jan-16 00:34N 43°14' E 007°19'1211.6
2015-Jan-15 23:33N 43°07' E 007°07'1211.5
2015-Jan-15 22:29N 42°58' E 006°55'1011.0
2015-Jan-15 21:33N 42°51' E 006°44'2812.1
2015-Jan-15 19:15N 42°33' E 006°16'1110.0
2015-Jan-15 18:09N 42°25' E 006°05'1111.4
2015-Jan-15 17:12N 42°18' E 005°54'912.0
2015-Jan-15 16:29N 42°12' E 005°46'1313.7
2015-Jan-15 15:30N 42°03' E 005°33'11 9.9
2015-Jan-15 14:23N 41°56' E 005°22'1211.7
2015-Jan-15 13:22N 41°48' E 005°10'1011.8
2015-Jan-15 12:33N 41°41' E 004°60'1211.6
2015-Jan-15 11:31N 41°33' E 004°48'1312.9
2015-Jan-15 10:31N 41°24' E 004°36'1212.4
2015-Jan-15 09:33N 41°16' E 004°24'1312.6
2015-Jan-15 08:31N 41°08' E 004°11'1311.9
2015-Jan-15 07:27N 40°59' E 003°59'2312.3
2015-Jan-15 05:33N 40°43' E 003°35'1212.2
2015-Jan-15 04:33N 40°35' E 003°24'1212.1
2015-Jan-15 03:33N 40°27' E 003°12'1212.0
2015-Jan-15 02:33N 40°19' E 003°00'1212.1
2015-Jan-15 01:33N 40°11' E 002°48'1212.1
2015-Jan-15 00:33N 40°03' E 002°36'1312.7
2015-Jan-14 23:34N 39°55' E 002°24'1312.7
2015-Jan-14 22:33N 39°47' E 002°11'1312.7
2015-Jan-14 21:33N 39°37' E 001°59'1212.4
2015-Jan-14 20:33N 39°29' E 001°48'1212.0
2015-Jan-14 19:33N 39°20' E 001°36'1311.9
2015-Jan-14 18:28N 39°12' E 001°24'2812.0
2015-Jan-14 16:09N 38°52' E 000°59'6714.0
2015-Jan-14 11:21N 38°01' E 000°03'1111.5
2015-Jan-14 10:26N 37°53' W 000°06'1011.8
2015-Jan-14 09:34N 37°46' W 000°15'1111.5
2015-Jan-14 08:33N 37°36' W 000°23'1311.2
2015-Jan-14 07:23N 37°27' W 000°35'1011.5
2015-Jan-14 06:33N 37°21' W 000°44'2711.3
2015-Jan-14 04:09N 37°03' W 001°10'711.7
2015-Jan-14 03:32N 36°59' W 001°17'20011.2
2015-Jan-13 09:33N 35°60' W 005°15'1211.3
2015-Jan-13 08:30N 35°57' W 005°30'  
Track history (hours):
 
Tides and Currents Weather Stations Pressure Air Temp Water Temp Dewpoint Dewpoint Depression Visibility Wind Speed Wind Dir Waves Ship Positions

Rickmers Seoul

Last reported at 2015-Jan-23 03:16 UTC. Time now 2015-Jan-25 14:17 UTC.
Position N 30°46' E 032°20'.

Length 192.9 m; beam 27.8 m; draft 11.2 m.

Type: Ship. MMSI: 538001809.

Date/timePositionNaut miles runAvg speedWind from/ knotsBaromVisibWave heightAir tempDewpointWater temp
2015-Jan-23 03:16N 30°46' E 032°20'6 9.1
2015-Jan-23 02:33N 30°52' E 032°19'9 9.1
2015-Jan-23 01:33N 31°01' E 032°19'9 8.9
2015-Jan-23 00:33N 31°10' E 032°18'10 8.1
2015-Jan-22 23:18N 31°19' E 032°22'3 1.4
2015-Jan-22 21:31N 31°22' E 032°20'0 0.0
2015-Jan-22 20:31N 31°21' E 032°20'0 0.0
2015-Jan-22 15:30N 31°21' E 032°20'5 5.5
2015-Jan-22 14:33N 31°27' E 032°19'1110.5
2015-Jan-22 13:32N 31°34' E 032°10'  
2015-Jan-17 15:25N 43°09' E 009°34'9 9.7
2015-Jan-17 14:31N 43°17' E 009°29'9 9.5
2015-Jan-17 13:33N 43°26' E 009°25'10 9.5
2015-Jan-17 12:33N 43°35' E 009°21'9 9.2
2015-Jan-17 11:33N 43°43' E 009°16'9 9.2
2015-Jan-17 10:33N 43°52' E 009°12'9 9.2
2015-Jan-17 09:33N 44°00' E 009°08'9 9.3
2015-Jan-17 08:34N 44°09' E 009°04'10 9.6
2015-Jan-17 07:33N 44°18' E 008°59'7 7.3
2015-Jan-17 06:33N 44°24' E 008°53'0 0.0
2015-Jan-17 05:28N 44°24' E 008°53'0 0.0
2015-Jan-17 04:31N 44°24' E 008°53'0 0.0
2015-Jan-17 03:31N 44°24' E 008°53'0 0.0
2015-Jan-17 02:31N 44°24' E 008°53'0 0.0
2015-Jan-17 01:31N 44°24' E 008°53'0 0.0
2015-Jan-17 00:31N 44°24' E 008°53'0 0.0
2015-Jan-16 23:31N 44°24' E 008°53'0 0.0
2015-Jan-16 22:31N 44°24' E 008°53'0 0.0
2015-Jan-16 21:31N 44°24' E 008°53'0 0.0
2015-Jan-16 20:31N 44°24' E 008°53'0 0.0
2015-Jan-16 19:31N 44°24' E 008°53'0 0.0
2015-Jan-16 18:31N 44°24' E 008°53'0 0.0
2015-Jan-16 17:28N 44°24' E 008°53'0 0.0
2015-Jan-16 16:31N 44°24' E 008°53'0 0.0
2015-Jan-16 15:31N 44°24' E 008°53'0 0.0
2015-Jan-16 14:31N 44°24' E 008°53'0 0.0
2015-Jan-16 13:31N 44°24' E 008°53'0 0.0
2015-Jan-16 12:28N 44°24' E 008°53'0 0.0
2015-Jan-16 11:31N 44°24' E 008°53'0 0.0
2015-Jan-16 10:31N 44°24' E 008°53'1 1.4
2015-Jan-16 09:33N 44°24' E 008°55'7 7.1
2015-Jan-16 08:33N 44°17' E 008°54'1211.8
2015-Jan-16 07:33N 44°09' E 008°42'1111.2
2015-Jan-16 06:33N 44°01' E 008°30'5011.6
2015-Jan-16 02:15N 43°28' E 007°39'811.9
2015-Jan-16 01:33N 43°22' E 007°31'1211.7
2015-Jan-16 00:34N 43°14' E 007°19'1211.6
2015-Jan-15 23:33N 43°07' E 007°07'1211.5
2015-Jan-15 22:29N 42°58' E 006°55'1011.0
2015-Jan-15 21:33N 42°51' E 006°44'2812.1
2015-Jan-15 19:15N 42°33' E 006°16'1110.0
2015-Jan-15 18:09N 42°25' E 006°05'1111.4
2015-Jan-15 17:12N 42°18' E 005°54'912.0
2015-Jan-15 16:29N 42°12' E 005°46'1313.7
2015-Jan-15 15:30N 42°03' E 005°33'11 9.9
2015-Jan-15 14:23N 41°56' E 005°22'1211.7
2015-Jan-15 13:22N 41°48' E 005°10'1011.8
2015-Jan-15 12:33N 41°41' E 004°60'1211.6
2015-Jan-15 11:31N 41°33' E 004°48'1312.9
2015-Jan-15 10:31N 41°24' E 004°36'1212.4
2015-Jan-15 09:33N 41°16' E 004°24'1312.6
2015-Jan-15 08:31N 41°08' E 004°11'1311.9
2015-Jan-15 07:27N 40°59' E 003°59'2312.3
2015-Jan-15 05:33N 40°43' E 003°35'1212.2
2015-Jan-15 04:33N 40°35' E 003°24'1212.1
2015-Jan-15 03:33N 40°27' E 003°12'1212.0
2015-Jan-15 02:33N 40°19' E 003°00'1212.1
2015-Jan-15 01:33N 40°11' E 002°48'1212.1
2015-Jan-15 00:33N 40°03' E 002°36'1312.7
2015-Jan-14 23:34N 39°55' E 002°24'1312.7
2015-Jan-14 22:33N 39°47' E 002°11'1312.7
2015-Jan-14 21:33N 39°37' E 001°59'1212.4
2015-Jan-14 20:33N 39°29' E 001°48'1212.0
2015-Jan-14 19:33N 39°20' E 001°36'1311.9
2015-Jan-14 18:28N 39°12' E 001°24'2812.0
2015-Jan-14 16:09N 38°52' E 000°59'6714.0
2015-Jan-14 11:21N 38°01' E 000°03'1111.5
2015-Jan-14 10:26N 37°53' W 000°06'1011.8
2015-Jan-14 09:34N 37°46' W 000°15'1111.5
2015-Jan-14 08:33N 37°36' W 000°23'1311.2
2015-Jan-14 07:23N 37°27' W 000°35'1011.5
2015-Jan-14 06:33N 37°21' W 000°44'2711.3
2015-Jan-14 04:09N 37°03' W 001°10'711.7
2015-Jan-14 03:32N 36°59' W 001°17'20011.2
2015-Jan-13 09:33N 35°60' W 005°15'1211.3
2015-Jan-13 08:30N 35°57' W 005°30'  

Dump ship's entire track history